Address 0x2f5f8d2ebcc84460a09da70a1343a7544c33f913

 
Txn Hash
Block
From
To
Value [Txn Fee]
0x18fde2bd2a64709179f3eed67705d1a83f62af976865d7b6c44073d6462a77a681981102021-06-11 7:25:452 days 4 hrs ago0x2f5f8d2ebcc84460a09da70a1343a7544c33f913OUT 0x22fb2663c7ca71adc2cc99481c77aaf21e152e2d0 BNB0.000663335
0xc25ad7b227bef55dffe05effd762f47d34e68ba839e911f1dd1e3fbd8d4b7d6881981032021-06-11 7:25:242 days 4 hrs ago0x2f5f8d2ebcc84460a09da70a1343a7544c33f913OUT PancakeSwap V2: WEX0 BNB0.00022167
0x7509f85d86194da723a2d96b3b536daaac76cea797d546626717be981febb56781980762021-06-11 7:24:032 days 4 hrs ago0x2f5f8d2ebcc84460a09da70a1343a7544c33f913OUT 0xb4814f1ca673dbe9a2637c5dd4e94a4a0ed834c60 BNB0.00022167
0x52461819534843e46b05b5e256084eb9de65daa9e2582b1d6ee5722b393cb6cd81980132021-06-11 7:20:542 days 4 hrs ago0x2f5f8d2ebcc84460a09da70a1343a7544c33f913OUT PancakeSwap: Router v20.502357010867196 BNB0.00096186
0xa7664118b8d3a5ce1e82372d293ad62c5999612c58ae1b2a1a5a10e8e1a3e29a81980032021-06-11 7:20:242 days 4 hrs ago0x2f5f8d2ebcc84460a09da70a1343a7544c33f913OUT WaultSwap: WEX Token0 BNB0.000222625
0xe8f2c46d58ab16c6ca91cbc936bbf143194998de40f70361db0ff63b3f805bfd81979812021-06-11 7:19:182 days 4 hrs ago0x2f5f8d2ebcc84460a09da70a1343a7544c33f913OUT PancakeSwap: Router v20 BNB0.000951
0x3b779624fed94fd95ea289c7b8e9bea4840d33afc8f4f9587a1d7ea72b2692f381978892021-06-11 7:14:422 days 4 hrs ago0x2f5f8d2ebcc84460a09da70a1343a7544c33f913OUT PancakeSwap: Router v20 BNB0.000794355
0x6e8ce86e2823c47c01fa7bd7868ea65f4e26da5b1cd2e04ff6bb73117b0dca2481978812021-06-11 7:14:182 days 4 hrs ago0x2f5f8d2ebcc84460a09da70a1343a7544c33f913OUT 0x58f876857a02d6762e0101bb5c46a8c1ed44dc160 BNB0.00022221
0x3c0d23d34f49a786bf9f1810b14117b6ccafc54372e7fb090316532b15afbfe781978482021-06-11 7:12:392 days 4 hrs ago0x2f5f8d2ebcc84460a09da70a1343a7544c33f913OUT PancakeSwap: Router v20 BNB0.000830575
0x6608b89be1d7d4136bec78d1df383b9e3b2439c0fda536e54043d77918522d5281978032021-06-11 7:10:242 days 4 hrs ago0x2f5f8d2ebcc84460a09da70a1343a7544c33f913OUT 0xd6a433992eca83bc50e59b0503c6168b1bf8ebe10 BNB0.000925845
0xb17a939b5105b707082a763f60c9003359727f0abb40657f12fbb45b0772ab2a80003322021-06-04 10:12:419 days 1 hr ago0x2f5f8d2ebcc84460a09da70a1343a7544c33f913OUT PancakeSwap: Router v20 BNB0.001133085
0x66ebc8a488c1dbab4ba7b89df91916af89c682691e4ac1a330a10771da4b5a3280003252021-06-04 10:12:209 days 1 hr ago0x2f5f8d2ebcc84460a09da70a1343a7544c33f913OUT 0xff96ce2cc0d20da0250a63bdca2b568f52a5bc710 BNB0.000222025
0x23261006c7cc9ceb86708e5330f0fc4b13823ab272199c1cfbe9ffb80266613980002772021-06-04 10:09:569 days 1 hr ago0x2f5f8d2ebcc84460a09da70a1343a7544c33f913OUT 0xd6a433992eca83bc50e59b0503c6168b1bf8ebe10 BNB0.000804615
0x7eea3d9324b84c95bb39801425bd9c22cde2e0456128afe78473726547d59ed079881082021-06-03 23:57:539 days 11 hrs ago0x2f5f8d2ebcc84460a09da70a1343a7544c33f913OUT 0xd6a433992eca83bc50e59b0503c6168b1bf8ebe10 BNB0.000879615
0xc098454fcafc22c913fa888529f9896e644bb0ada23405d117105197e1435bce79369282021-06-02 5:10:1711 days 6 hrs ago0x2f5f8d2ebcc84460a09da70a1343a7544c33f913OUT 0xd6a433992eca83bc50e59b0503c6168b1bf8ebe10 BNB0.001039295
0x03e2ac5f58620e19f95385f3c80b0ca0da7a9ce8b26df3deab4b0dc9b9775b9279369052021-06-02 5:09:0811 days 6 hrs ago0x2f5f8d2ebcc84460a09da70a1343a7544c33f913OUT PancakeSwap: Router v20.498446198164601 BNB0.0009495
0xa34163c8e884062ff168b497af708f15c91d76ceee6ee0a3e3a3212829bdfe3779368962021-06-02 5:08:4111 days 6 hrs ago0x2f5f8d2ebcc84460a09da70a1343a7544c33f913OUT Binance: BUSD Stablecoin0 BNB0.00022203
0x37064ad9d23cc8f81e9476ce8408dad5d6dfa6d858d14b80c62accb393920e3479368822021-06-02 5:07:5911 days 6 hrs ago0x2f5f8d2ebcc84460a09da70a1343a7544c33f913OUT PancakeSwap: Router v20.5 BNB0.00061094
0xa5da243e6fea7f4b7d2f0c594ab779ae571d04607f5f015c27ca0e66bee2a3f879368532021-06-02 5:06:3211 days 6 hrs ago0x2f5f8d2ebcc84460a09da70a1343a7544c33f913OUT 0x58f876857a02d6762e0101bb5c46a8c1ed44dc160 BNB0.00022221
0x4160fbb7bfc20a967f5d12898f31d6b13eddae4e7954b39f8b454e55bd52512978550952021-05-30 8:43:0914 days 3 hrs agoBinance: Hot Wallet 3 IN 0x2f5f8d2ebcc84460a09da70a1343a7544c33f9132 BNB0.00021
0xc0e7d9311a5aa004f7bfa40c812cc72ac7d68b2c9eb1a9b1a5bf5259cc4fc3a475949242021-05-21 6:52:5523 days 5 hrs ago0x2f5f8d2ebcc84460a09da70a1343a7544c33f913OUT PancakeSwap: Router v20.05 BNB0.00117312
0x490fc4e7cb04690e8c24f08b7dffd5645bfd773850a318ccd8dbca6744fa678f74305992021-05-15 12:14:3928 days 23 hrs ago0x2f5f8d2ebcc84460a09da70a1343a7544c33f913OUT PancakeSwap: Router v20.1 BNB0.000782195
0xc046ae7f222a36fe95cbc0a39cb621d06d06821c9bdb9572d1a5c63d8e538dc874247122021-05-15 7:19:2329 days 4 hrs ago0x2f5f8d2ebcc84460a09da70a1343a7544c33f913OUT PancakeSwap: Router v20.1 BNB0.00067152
0x9fd4296aac1e1dfc90746676b9eed517983a45ba891e9dfc9a77c3deab9e1d8374244942021-05-15 7:08:2929 days 4 hrs ago0x2f5f8d2ebcc84460a09da70a1343a7544c33f913OUT 0xcde540d7eafe93ac5fe6233bee57e1270d3e330f0.1 BNB0.000652205
0x9a25ec7523a01ea03ed4b41bfd40a3919f490421a71c65554f8be7dd1bee2ca874049962021-05-14 14:14:5429 days 21 hrs ago0x2f5f8d2ebcc84460a09da70a1343a7544c33f913OUT Dogecoin: Dogecoin Token0 BNB0.00023576
[ Download CSV Export 
Latest 5 internal transactions
Parent Txn Hash Block From To Value
0x3b779624fed94fd95ea289c7b8e9bea4840d33afc8f4f9587a1d7ea72b2692f381978892021-06-11 7:14:422 days 4 hrs ago PancakeSwap: Router v20x2f5f8d2ebcc84460a09da70a1343a7544c33f9130.489879822880909782 BNB
0x3c0d23d34f49a786bf9f1810b14117b6ccafc54372e7fb090316532b15afbfe781978482021-06-11 7:12:392 days 4 hrs ago PancakeSwap: Router v20x2f5f8d2ebcc84460a09da70a1343a7544c33f9130.041354766164897649 BNB
0x03e2ac5f58620e19f95385f3c80b0ca0da7a9ce8b26df3deab4b0dc9b9775b9279369052021-06-02 5:09:0811 days 6 hrs ago PancakeSwap: Router v20x2f5f8d2ebcc84460a09da70a1343a7544c33f9130.000023245488605719 BNB
0xb38f9e9de21d94f81ac737ae64dcd68074a2df90b54071751db3ca749addf29b74034872021-05-14 12:58:3529 days 22 hrs ago BSC: Token Hub0x2f5f8d2ebcc84460a09da70a1343a7544c33f9130.28 BNB
0xeb789f9c44634ea092c7707d208dcc045cd4507a449b3bab2b24132baf459e8f73181232021-05-11 10:15:1033 days 1 hr ago BSC: Token Hub0x2f5f8d2ebcc84460a09da70a1343a7544c33f9130.1 BNB
[ Download CSV Export 
Loading

Contract Name:
0 BNB

Compiler Version
0

Optimization Enabled:
0 BNB

Other Settings:
-NA-
Block Transaction Gas Used Reward
Age Block Fee Address BC Fee Address Voting Power Jailed Incoming
Block Uncle Number Difficulty Gas Used Reward
Loading
Loading
Make sure to use the "Vote Down" button for any spammy posts, and the "Vote Up" for interesting conversations.